createdAt,value
2022-12-18T00:01:28.630Z,95.31
2022-12-18T00:03:58.120Z,95.02
2022-12-18T00:06:27.618Z,95.19
2022-12-18T00:08:57.763Z,94.81
2022-12-18T00:11:29.246Z,95.23
2022-12-18T00:13:59.269Z,94.92
2022-12-18T00:16:28.187Z,94.85
2022-12-18T00:18:58.774Z,95.37
2022-12-18T00:21:26.541Z,94.90
2022-12-18T00:23:54.638Z,94.65
2022-12-18T00:26:25.147Z,94.91
2022-12-18T00:29:01.100Z,94.39
2022-12-18T00:31:31.911Z,94.88
2022-12-18T00:34:01.284Z,94.36
2022-12-18T00:36:31.131Z,94.73
2022-12-18T00:39:00.302Z,94.55
2022-12-18T00:41:46.847Z,94.58
2022-12-18T00:44:18.248Z,94.53
2022-12-18T00:46:48.131Z,94.04
2022-12-18T00:49:16.165Z,94.30
2022-12-18T00:51:43.993Z,94.01
2022-12-18T00:54:12.886Z,93.61
2022-12-18T00:56:48.255Z,93.44
2022-12-18T00:59:18.743Z,93.91
2022-12-18T01:01:47.048Z,93.61
2022-12-18T01:04:15.528Z,93.99
2022-12-18T01:06:46.698Z,93.45
2022-12-18T01:09:14.470Z,93.40
2022-12-18T01:11:42.382Z,93.76
2022-12-18T01:14:11.919Z,93.36
2022-12-18T01:16:41.117Z,93.25
2022-12-18T01:19:09.004Z,93.79
2022-12-18T01:21:36.787Z,93.59
2022-12-18T01:24:06.223Z,94.00
2022-12-18T01:26:34.985Z,93.80
2022-12-18T01:29:02.692Z,93.40
2022-12-18T01:31:33.318Z,93.84
2022-12-18T01:34:06.026Z,94.06
2022-12-18T01:36:37.522Z,94.37
2022-12-18T01:39:07.414Z,93.46
2022-12-18T01:41:50.726Z,94.09
2022-12-18T01:45:04.255Z,93.82
2022-12-18T01:47:40.047Z,93.68
2022-12-18T01:50:13.524Z,94.09
2022-12-18T01:52:44.686Z,93.83
2022-12-18T01:55:14.410Z,93.50
2022-12-18T01:57:43.309Z,94.06
2022-12-18T02:00:15.864Z,93.46
2022-12-18T02:02:46.403Z,93.85
2022-12-18T02:05:18.575Z,94.16
2022-12-18T02:07:58.242Z,93.93
2022-12-18T02:10:32.010Z,94.16
2022-12-18T02:13:13.655Z,94.67
2022-12-18T02:15:45.942Z,94.25
2022-12-18T02:18:20.686Z,94.54
2022-12-18T02:20:56.202Z,94.76
2022-12-18T02:23:41.932Z,94.46
2022-12-18T02:26:18.618Z,94.23
2022-12-18T02:28:50.144Z,94.43
2022-12-18T02:31:23.283Z,94.47
2022-12-18T02:33:52.237Z,94.52
2022-12-18T02:36:23.843Z,94.09
2022-12-18T02:38:53.865Z,94.42
2022-12-18T02:41:24.711Z,95.01
2022-12-18T02:43:58.037Z,94.86
2022-12-18T02:46:37.020Z,94.95
2022-12-18T02:49:27.983Z,94.89
2022-12-18T02:52:03.826Z,94.69
2022-12-18T02:54:54.412Z,94.26
2022-12-18T02:57:30.867Z,94.54
2022-12-18T03:00:07.185Z,94.02
2022-12-18T03:02:40.051Z,95.13
2022-12-18T03:05:16.012Z,94.35
2022-12-18T03:07:49.319Z,94.31
2022-12-18T03:10:25.790Z,93.98
2022-12-18T03:12:59.853Z,93.69
2022-12-18T03:15:31.671Z,93.73
2022-12-18T03:18:12.864Z,94.24
2022-12-18T03:20:44.277Z,93.96
2022-12-18T03:23:17.740Z,93.83
2022-12-18T03:25:52.383Z,94.06
2022-12-18T03:28:24.694Z,94.10
2022-12-18T03:31:03.414Z,93.98
2022-12-18T03:33:36.914Z,94.70
2022-12-18T03:36:05.612Z,94.39
2022-12-18T03:38:34.636Z,94.60
2022-12-18T03:41:09.150Z,94.82
2022-12-18T03:43:53.080Z,94.49
2022-12-18T03:46:30.309Z,94.21
2022-12-18T03:49:06.338Z,94.68
2022-12-18T03:51:39.992Z,94.52
2022-12-18T03:54:10.723Z,95.03
2022-12-18T03:56:45.685Z,94.67
2022-12-18T03:59:17.436Z,94.66
2022-12-18T04:01:49.561Z,94.90
2022-12-18T04:04:20.748Z,95.11
2022-12-18T04:06:51.591Z,94.73
2022-12-18T04:09:21.218Z,94.46
2022-12-18T04:11:50.478Z,94.79
2022-12-18T04:14:19.578Z,94.48
2022-12-18T04:16:51.683Z,94.64
2022-12-18T04:19:24.078Z,94.64
2022-12-18T04:21:53.743Z,94.81
2022-12-18T04:24:21.894Z,94.50
2022-12-18T04:27:01.326Z,94.36
2022-12-18T04:29:35.733Z,94.75
2022-12-18T04:32:03.510Z,94.93
2022-12-18T04:34:33.037Z,95.00
2022-12-18T04:37:01.206Z,95.21
2022-12-18T04:39:29.226Z,95.40
2022-12-18T04:42:05.733Z,95.14
2022-12-18T04:44:35.186Z,95.07
2022-12-18T04:47:03.030Z,94.75
2022-12-18T04:49:30.740Z,94.87
2022-12-18T04:51:58.537Z,95.25
2022-12-18T04:54:26.468Z,95.14
2022-12-18T04:56:54.256Z,95.05
2022-12-18T04:59:22.919Z,94.80
2022-12-18T05:01:52.939Z,95.12
2022-12-18T05:04:21.753Z,94.78
2022-12-18T05:06:49.466Z,94.68
2022-12-18T05:09:17.195Z,94.86
2022-12-18T05:11:45.307Z,94.77
2022-12-18T05:14:14.204Z,94.50
2022-12-18T05:16:41.961Z,94.87
2022-12-18T05:19:11.479Z,94.98
2022-12-18T05:21:39.520Z,94.89
2022-12-18T05:24:07.646Z,94.75
2022-12-18T05:26:35.352Z,94.79
2022-12-18T05:29:03.063Z,95.27
2022-12-18T05:31:35.924Z,94.97
2022-12-18T05:34:06.841Z,95.01
2022-12-18T05:36:35.957Z,95.10
2022-12-18T05:39:03.729Z,94.78
2022-12-18T05:41:32.284Z,95.07
2022-12-18T05:44:00.261Z,95.07
2022-12-18T05:46:28.839Z,95.07
2022-12-18T05:48:56.985Z,95.24
2022-12-18T05:51:24.708Z,95.25
2022-12-18T05:53:53.860Z,95.53
2022-12-18T05:56:23.676Z,95.73
2022-12-18T05:58:53.760Z,94.95
2022-12-18T06:01:24.023Z,95.28
2022-12-18T06:03:51.853Z,95.23
2022-12-18T06:06:23.169Z,95.47
2022-12-18T06:08:52.929Z,95.33
2022-12-18T06:11:22.927Z,95.13
2022-12-18T06:13:56.324Z,95.31
2022-12-18T06:16:26.465Z,95.19
2022-12-18T06:18:54.291Z,95.01
2022-12-18T06:21:22.639Z,95.16
2022-12-18T06:23:50.416Z,95.06
2022-12-18T06:26:24.641Z,94.91
2022-12-18T06:28:55.452Z,95.19
2022-12-18T06:31:23.815Z,95.37
2022-12-18T06:33:51.698Z,95.65
2022-12-18T06:36:20.589Z,95.88
2022-12-18T06:38:48.507Z,95.39
2022-12-18T06:41:18.269Z,95.56
2022-12-18T06:43:47.627Z,95.61
2022-12-18T06:46:15.559Z,95.19
2022-12-18T06:48:43.623Z,95.23
2022-12-18T06:51:11.340Z,95.06
2022-12-18T06:53:40.009Z,95.03
2022-12-18T06:56:10.892Z,95.00
2022-12-18T06:58:39.179Z,95.09
2022-12-18T07:01:10.611Z,95.53
2022-12-18T07:03:39.656Z,95.30
2022-12-18T07:06:08.216Z,95.78
2022-12-18T07:08:36.473Z,96.43
2022-12-18T07:11:06.502Z,96.45
2022-12-18T07:13:34.222Z,96.47
2022-12-18T07:16:15.955Z,96.94
2022-12-18T07:18:45.420Z,96.76
2022-12-18T07:21:14.925Z,96.87
2022-12-18T07:23:42.921Z,97.05
2022-12-18T07:26:13.118Z,96.50
2022-12-18T07:28:42.527Z,97.08
2022-12-18T07:31:13.689Z,97.04
2022-12-18T07:33:41.970Z,97.31
2022-12-18T07:36:12.528Z,97.83
2022-12-18T07:38:41.031Z,98.84
2022-12-18T07:41:11.734Z,98.62
2022-12-18T07:43:40.731Z,98.39
2022-12-18T07:46:13.187Z,98.00
2022-12-18T07:48:41.615Z,97.98
2022-12-18T07:51:09.814Z,97.49
2022-12-18T07:53:38.948Z,97.45
2022-12-18T07:58:57.233Z,96.79
2022-12-18T08:01:26.817Z,96.33
2022-12-18T08:03:54.813Z,95.84
2022-12-18T08:06:23.788Z,95.78
2022-12-18T08:08:53.757Z,95.51
2022-12-18T08:11:21.997Z,95.61
2022-12-18T08:13:49.808Z,95.30
2022-12-18T08:16:18.005Z,95.54
2022-12-18T08:18:47.328Z,95.42
2022-12-18T08:21:17.761Z,94.68
2022-12-18T08:23:46.267Z,94.92
2022-12-18T08:26:14.724Z,95.04
2022-12-18T08:28:43.280Z,94.55
2022-12-18T08:31:11.723Z,94.22
2022-12-18T08:33:41.047Z,94.00
2022-12-18T08:36:11.872Z,93.87
2022-12-18T08:38:39.765Z,93.40
2022-12-18T08:41:09.343Z,93.75
2022-12-18T08:43:54.858Z,93.04
2022-12-18T08:46:23.131Z,93.01
2022-12-18T08:48:53.079Z,92.53
2022-12-18T08:51:22.575Z,92.82
2022-12-18T08:53:50.328Z,92.22
2022-12-18T08:56:18.690Z,91.83
2022-12-18T08:58:46.631Z,91.53
2022-12-18T09:01:15.172Z,91.61
2022-12-18T09:03:43.411Z,91.76
2022-12-18T09:06:16.621Z,91.07
2022-12-18T09:08:46.458Z,90.96
2022-12-18T09:11:16.734Z,90.45
2022-12-18T09:13:44.418Z,89.91
2022-12-18T09:16:12.108Z,89.95
2022-12-18T09:18:40.071Z,89.64
2022-12-18T09:21:12.731Z,89.07
2022-12-18T09:23:40.809Z,90.06
2022-12-18T09:26:09.967Z,89.53
2022-12-18T09:28:38.347Z,89.36
2022-12-18T09:31:09.420Z,89.67
2022-12-18T09:33:37.688Z,89.26
2022-12-18T09:36:08.192Z,89.55
2022-12-18T09:38:36.866Z,89.01
2022-12-18T09:41:09.000Z,88.41
2022-12-18T09:43:45.244Z,88.46
2022-12-18T09:46:19.055Z,88.14
2022-12-18T09:48:51.359Z,88.12
2022-12-18T09:51:25.441Z,87.51
2022-12-18T09:53:59.465Z,87.23
2022-12-18T09:56:31.019Z,86.23
2022-12-18T09:59:02.061Z,85.98
2022-12-18T10:01:41.533Z,85.36
2022-12-18T10:04:11.865Z,85.06
2022-12-18T10:06:48.133Z,85.59
2022-12-18T10:09:27.571Z,84.61
2022-12-18T10:12:05.446Z,84.21
2022-12-18T10:14:45.260Z,84.00
2022-12-18T10:17:25.221Z,83.28
2022-12-18T10:19:58.277Z,83.15
2022-12-18T10:22:42.650Z,83.52
2022-12-18T10:25:21.336Z,82.55
2022-12-18T10:27:50.416Z,82.07
2022-12-18T10:30:22.243Z,81.58
2022-12-18T10:32:50.141Z,81.48
2022-12-18T10:35:21.804Z,81.41
2022-12-18T10:38:03.872Z,81.31
2022-12-18T10:40:32.147Z,81.24
2022-12-18T10:43:12.641Z,80.45
2022-12-18T10:45:41.848Z,79.70
2022-12-18T10:48:21.203Z,79.84
2022-12-18T10:53:43.942Z,78.21
2022-12-18T10:56:12.723Z,78.25
2022-12-18T10:58:41.465Z,78.07
2022-12-18T11:01:13.693Z,78.08
2022-12-18T11:03:43.519Z,77.31
2022-12-18T11:06:13.448Z,76.44
2022-12-18T11:08:43.119Z,77.15
2022-12-18T11:11:21.637Z,76.45
2022-12-18T11:14:00.530Z,76.60
2022-12-18T11:16:31.681Z,77.22
2022-12-18T11:19:17.134Z,76.91
2022-12-18T11:21:45.043Z,77.07
2022-12-18T11:24:22.289Z,77.11
2022-12-18T11:26:53.750Z,76.68
2022-12-18T11:29:29.282Z,76.96
2022-12-18T11:32:25.771Z,76.86
2022-12-18T11:35:00.024Z,76.91
2022-12-18T11:37:29.670Z,77.52
2022-12-18T11:40:02.019Z,77.31
2022-12-18T11:42:37.847Z,77.18
2022-12-18T11:45:25.423Z,77.48
2022-12-18T11:48:00.774Z,77.98
2022-12-18T11:50:33.476Z,78.11
2022-12-18T11:53:05.653Z,77.89
2022-12-18T11:55:41.849Z,78.31
2022-12-18T11:58:18.988Z,78.65
2022-12-18T12:00:51.491Z,78.65
2022-12-18T12:03:42.096Z,78.72
2022-12-18T12:06:16.170Z,78.89
2022-12-18T12:09:03.249Z,79.16
2022-12-18T12:11:44.194Z,79.17
2022-12-18T12:14:25.405Z,79.22
2022-12-18T12:16:59.391Z,79.59
2022-12-18T12:19:40.280Z,79.39
2022-12-18T12:22:15.875Z,79.72
2022-12-18T12:25:01.478Z,79.66
2022-12-18T12:27:34.678Z,79.85
2022-12-18T12:30:08.525Z,79.74
2022-12-18T12:32:52.763Z,79.27
2022-12-18T12:35:32.386Z,80.06
2022-12-18T12:38:10.165Z,79.93
2022-12-18T12:40:54.021Z,79.48
2022-12-18T12:43:32.138Z,79.90
2022-12-18T12:46:08.393Z,80.36
2022-12-18T12:48:46.129Z,80.24
2022-12-18T12:51:19.764Z,80.21
2022-12-18T12:53:49.714Z,80.16
2022-12-18T12:56:19.871Z,80.31
2022-12-18T12:58:57.673Z,79.99
2022-12-18T13:01:35.184Z,80.11
2022-12-18T13:04:14.784Z,80.14
2022-12-18T13:06:52.299Z,80.31
2022-12-18T13:09:20.043Z,79.88
2022-12-18T13:12:07.596Z,79.77
2022-12-18T13:14:37.738Z,79.41
2022-12-18T13:17:31.771Z,79.48
2022-12-18T13:20:12.002Z,79.48
2022-12-18T13:22:44.942Z,79.19
2022-12-18T13:25:37.632Z,79.60
2022-12-18T13:28:10.338Z,79.40
2022-12-18T13:31:02.808Z,79.70
2022-12-18T13:36:39.888Z,78.98
2022-12-18T13:39:34.340Z,79.32
2022-12-18T13:42:58.772Z,79.74
2022-12-18T13:45:43.357Z,80.33
2022-12-18T13:48:21.187Z,81.10
2022-12-18T13:50:55.817Z,81.23
2022-12-18T13:53:28.439Z,82.19
2022-12-18T13:55:58.608Z,81.76
2022-12-18T13:58:26.368Z,81.69
2022-12-18T14:00:54.186Z,81.92
2022-12-18T14:03:27.061Z,82.17
2022-12-18T14:06:05.577Z,82.09
2022-12-18T14:08:41.338Z,81.85
2022-12-18T14:11:22.364Z,82.79
2022-12-18T14:13:51.186Z,83.23
2022-12-18T14:16:19.731Z,83.65
2022-12-18T14:18:51.160Z,83.61
2022-12-18T14:21:23.118Z,83.44
2022-12-18T14:23:51.269Z,83.97
2022-12-18T14:26:29.356Z,84.45
2022-12-18T14:28:57.537Z,84.42
2022-12-18T14:31:27.326Z,85.14
2022-12-18T14:33:55.525Z,85.29
2022-12-18T14:36:24.993Z,85.56
2022-12-18T14:38:54.610Z,85.17
2022-12-18T14:41:24.835Z,85.20
2022-12-18T14:43:54.711Z,84.89
2022-12-18T14:46:34.633Z,85.44
2022-12-18T14:49:05.556Z,85.38
2022-12-18T14:51:35.293Z,85.27
2022-12-18T14:54:05.280Z,85.09
2022-12-18T14:56:37.191Z,85.24
2022-12-18T14:59:06.868Z,85.36
2022-12-18T15:01:38.919Z,85.37
2022-12-18T15:04:25.046Z,85.54
2022-12-18T15:07:05.852Z,85.65
2022-12-18T15:09:33.734Z,85.92
2022-12-18T15:12:03.574Z,86.09
2022-12-18T15:14:37.189Z,86.11
2022-12-18T15:17:08.214Z,86.19
2022-12-18T15:19:40.839Z,86.44
2022-12-18T15:22:21.437Z,86.50
2022-12-18T15:24:50.769Z,86.45
2022-12-18T15:27:32.051Z,86.95
2022-12-18T15:30:19.896Z,86.86
2022-12-18T15:32:48.574Z,86.99
2022-12-18T15:35:19.431Z,87.10
2022-12-18T15:37:47.662Z,87.27
2022-12-18T15:40:16.231Z,87.04
2022-12-18T15:43:05.071Z,86.97
2022-12-18T15:45:32.910Z,87.25
2022-12-18T15:48:08.505Z,87.01
2022-12-18T15:50:36.596Z,87.13
2022-12-18T15:53:04.596Z,87.23
2022-12-18T15:55:59.313Z,87.17
2022-12-18T15:58:29.997Z,87.26
2022-12-18T16:01:00.499Z,87.31
2022-12-18T16:03:28.447Z,86.97
2022-12-18T16:05:56.536Z,87.39
2022-12-18T16:08:25.618Z,86.98
2022-12-18T16:10:53.333Z,87.59
2022-12-18T16:13:22.303Z,87.41
2022-12-18T16:15:51.784Z,87.71
2022-12-18T16:18:19.572Z,87.63
2022-12-18T16:20:47.386Z,87.26
2022-12-18T16:23:15.205Z,87.85
2022-12-18T16:25:42.937Z,87.75
2022-12-18T16:28:10.972Z,87.69
2022-12-18T16:30:38.905Z,87.95
2022-12-18T16:33:08.028Z,87.83
2022-12-18T16:35:37.986Z,88.11
2022-12-18T16:38:05.775Z,88.06
2022-12-18T16:40:34.236Z,87.98
2022-12-18T16:43:01.885Z,87.77
2022-12-18T16:45:33.947Z,88.02
2022-12-18T16:48:01.914Z,87.50
2022-12-18T16:50:32.203Z,87.76
2022-12-18T16:53:00.470Z,87.49
2022-12-18T16:55:28.756Z,87.79
2022-12-18T16:57:56.493Z,87.80
2022-12-18T17:00:24.190Z,87.89
2022-12-18T17:02:52.615Z,88.00
2022-12-18T17:05:21.495Z,87.36
2022-12-18T17:07:50.958Z,87.24
2022-12-18T17:10:18.889Z,86.89
2022-12-18T17:12:47.253Z,87.23
2022-12-18T17:15:15.253Z,87.35
2022-12-18T17:17:44.625Z,87.81
2022-12-18T17:20:13.025Z,87.15
2022-12-18T17:22:41.207Z,87.41
2022-12-18T17:25:10.958Z,87.69
2022-12-18T17:27:39.071Z,87.87
2022-12-18T17:30:09.890Z,87.72
2022-12-18T17:32:38.658Z,87.67
2022-12-18T17:35:08.065Z,87.38
2022-12-18T17:37:36.840Z,87.95
2022-12-18T17:40:11.396Z,87.40
2022-12-18T17:42:39.555Z,88.02
2022-12-18T17:45:08.440Z,87.94
2022-12-18T17:47:36.754Z,88.16
2022-12-18T17:50:05.401Z,87.81
2022-12-18T17:52:36.564Z,87.89
2022-12-18T17:55:05.835Z,87.90
2022-12-18T17:57:35.072Z,87.97
2022-12-18T18:00:02.912Z,87.73
2022-12-18T18:02:43.823Z,87.75
2022-12-18T18:05:13.420Z,88.07
2022-12-18T18:07:43.055Z,87.64
2022-12-18T18:10:11.351Z,87.87
2022-12-18T18:12:57.698Z,87.68
2022-12-18T18:15:25.456Z,88.01
2022-12-18T18:17:53.234Z,87.74
2022-12-18T18:20:22.911Z,87.81
2022-12-18T18:22:50.818Z,87.95
2022-12-18T18:25:18.718Z,88.12
2022-12-18T18:27:48.647Z,87.93
2022-12-18T18:30:16.733Z,87.92
2022-12-18T18:32:44.483Z,87.56
2022-12-18T18:35:30.691Z,87.57
2022-12-18T18:38:00.309Z,87.92
2022-12-18T18:40:28.749Z,87.73
2022-12-18T18:42:58.390Z,88.35
2022-12-18T18:45:26.189Z,88.07
2022-12-18T18:47:53.992Z,88.08
2022-12-18T18:50:21.782Z,87.85
2022-12-18T18:52:49.664Z,87.68
2022-12-18T18:55:25.337Z,87.29
2022-12-18T18:57:53.630Z,87.46
2022-12-18T19:00:22.793Z,87.59
2022-12-18T19:02:52.156Z,88.03
2022-12-18T19:05:22.893Z,87.64
2022-12-18T19:07:50.560Z,87.65
2022-12-18T19:10:18.336Z,87.84
2022-12-18T19:13:03.547Z,87.81
2022-12-18T19:15:33.031Z,88.01
2022-12-18T19:18:00.935Z,87.87
2022-12-18T19:20:28.826Z,87.89
2022-12-18T19:22:57.116Z,88.28
2022-12-18T19:25:40.012Z,87.96
2022-12-18T19:28:16.021Z,87.85
2022-12-18T19:30:53.562Z,88.30
2022-12-18T19:33:42.305Z,88.00
2022-12-18T19:36:12.865Z,88.16
2022-12-18T19:38:41.544Z,88.39
2022-12-18T19:41:14.212Z,88.32
2022-12-18T19:43:42.803Z,88.17
2022-12-18T19:46:15.440Z,88.33
2022-12-18T19:48:44.335Z,88.34
2022-12-18T19:51:15.797Z,88.23
2022-12-18T19:53:43.948Z,88.70
2022-12-18T19:56:14.211Z,88.71
2022-12-18T19:58:42.440Z,88.46
2022-12-18T20:01:16.673Z,88.23
2022-12-18T20:03:52.384Z,88.29
2022-12-18T20:06:26.374Z,88.30
2022-12-18T20:08:57.672Z,88.38
2022-12-18T20:11:28.140Z,88.46
2022-12-18T20:13:55.869Z,88.57
2022-12-18T20:16:25.135Z,88.43
2022-12-18T20:18:56.393Z,88.47
2022-12-18T20:21:25.175Z,88.66
2022-12-18T20:23:54.750Z,88.33
2022-12-18T20:26:22.719Z,88.55
2022-12-18T20:28:50.490Z,88.65
2022-12-18T20:31:18.223Z,88.96
2022-12-18T20:33:48.679Z,88.94
2022-12-18T20:36:28.196Z,88.63
2022-12-18T20:38:59.274Z,88.79
2022-12-18T20:41:38.549Z,89.29
2022-12-18T20:44:13.728Z,89.18
2022-12-18T20:46:50.411Z,89.33
2022-12-18T20:49:19.615Z,89.18
2022-12-18T20:51:47.371Z,89.27
2022-12-18T20:54:15.066Z,89.29
2022-12-18T20:56:42.764Z,89.50
2022-12-18T20:59:11.329Z,89.56
2022-12-18T21:01:40.112Z,89.34
2022-12-18T21:04:15.166Z,89.58
2022-12-18T21:06:50.921Z,89.48
2022-12-18T21:09:19.436Z,89.65
2022-12-18T21:12:05.730Z,89.84
2022-12-18T21:14:33.626Z,89.90
2022-12-18T21:17:01.921Z,90.10
2022-12-18T21:19:30.393Z,91.01
2022-12-18T21:22:00.142Z,91.55
2022-12-18T21:24:32.010Z,91.29
2022-12-18T21:27:03.610Z,91.68
2022-12-18T21:29:31.458Z,92.09
2022-12-18T21:31:59.244Z,92.49
2022-12-18T21:34:28.562Z,92.67
2022-12-18T21:36:57.719Z,93.46
2022-12-18T21:39:27.899Z,93.81
2022-12-18T21:42:13.451Z,94.54
2022-12-18T21:44:42.598Z,94.73
2022-12-18T21:47:21.505Z,94.85
2022-12-18T21:49:51.835Z,95.84
2022-12-18T21:52:20.342Z,96.23
2022-12-18T21:54:53.692Z,96.77
2022-12-18T21:57:21.372Z,96.82
2022-12-18T21:59:50.458Z,97.42
2022-12-18T22:02:21.164Z,97.64
2022-12-18T22:04:49.322Z,98.12
2022-12-18T22:07:17.868Z,98.67
2022-12-18T22:09:46.058Z,99.00
2022-12-18T22:12:35.026Z,99.73
2022-12-18T22:15:04.979Z,99.36
2022-12-18T22:17:33.263Z,99.68
2022-12-18T22:20:00.959Z,99.96
2022-12-18T22:22:28.942Z,100.00
2022-12-18T22:24:56.883Z,100.00
2022-12-18T22:27:26.014Z,100.00
2022-12-18T22:30:04.854Z,100.00
2022-12-18T22:32:33.768Z,100.00
2022-12-18T22:35:07.215Z,100.00
2022-12-18T22:37:37.176Z,100.00
2022-12-18T22:40:06.252Z,100.00
2022-12-18T22:42:36.965Z,100.00
2022-12-18T22:45:05.323Z,100.00
2022-12-18T22:47:33.063Z,100.00
2022-12-18T22:50:00.781Z,100.00
2022-12-18T22:52:28.500Z,100.00
2022-12-18T22:54:56.387Z,100.00
2022-12-18T22:57:25.277Z,100.00
2022-12-18T22:59:54.315Z,100.00
2022-12-18T23:02:22.241Z,100.00
2022-12-18T23:04:50.118Z,100.00
2022-12-18T23:07:18.683Z,100.00
2022-12-18T23:09:46.828Z,100.00
2022-12-18T23:12:19.756Z,100.00
2022-12-18T23:14:47.846Z,100.00
2022-12-18T23:17:17.025Z,100.00
2022-12-18T23:19:49.016Z,100.00
2022-12-18T23:22:17.459Z,100.00
2022-12-18T23:24:45.432Z,100.00
2022-12-18T23:27:13.290Z,100.00
2022-12-18T23:29:41.585Z,100.00
2022-12-18T23:32:09.558Z,100.00
2022-12-18T23:34:38.578Z,100.00
2022-12-18T23:37:06.268Z,100.00
2022-12-18T23:39:36.923Z,100.00
2022-12-18T23:42:04.828Z,100.00
2022-12-18T23:44:32.490Z,100.00
2022-12-18T23:47:00.242Z,100.00
2022-12-18T23:49:28.450Z,100.00
2022-12-18T23:51:57.559Z,100.00
2022-12-18T23:54:33.451Z,100.00
2022-12-18T23:57:02.069Z,100.00
2022-12-18T23:59:29.761Z,100.00
